Time;durP1;ratioP1;P1;durP2;ratioP2;P2;SDS_P1;SDS_P2;PMS_P1;PMS_P2;Temp;Humidity;BMP_temperature;BMP_pressure;BME280_temperature;BME280_humidity;BME280_pressure;Samples;Min_cycle;Max_cycle;Signal;HPM_P1;HPM_P2
2023/09/30 00:00:09;;;;;;;21.27;9.93;;;;;;;;;;2097528;28;20016;-73
2023/09/30 00:01:30;;;;;;;21.45;9.70;;;;;;;;;;2089511;28;20028;-73
2023/09/30 00:02:51;;;;;;;22.13;10.13;;;;;;;;;;2092431;28;20037;-73
2023/09/30 00:04:12;;;;;;;19.50;10.35;;;;;;;;;;2093191;28;20040;-73
2023/09/30 00:05:33;;;;;;;24.23;10.32;;;;;;;;;;2096439;28;20466;-74
2023/09/30 00:06:54;;;;;;;21.77;10.48;;;;;;;;;;2097299;28;20066;-74
2023/09/30 00:08:15;;;;;;;20.08;10.15;;;;;;;;;;2097661;28;20083;-74
2023/09/30 00:09:35;;;;;;;15.43;9.40;;;;;;;;;;2090621;28;20047;-73
2023/09/30 00:10:56;;;;;;;20.23;9.75;;;;;;;;;;2094752;28;20474;-73
2023/09/30 00:12:17;;;;;;;20.52;10.63;;;;;;;;;;2087860;28;20029;-73
2023/09/30 00:13:38;;;;;;;18.35;9.95;;;;;;;;;;2089097;28;20563;-73
2023/09/30 00:14:59;;;;;;;22.73;9.30;;;;;;;;;;2090011;28;20037;-73
2023/09/30 00:16:20;;;;;;;20.63;9.82;;;;;;;;;;2087561;28;20029;-74
2023/09/30 00:17:41;;;;;;;24.50;10.43;;;;;;;;;;2092245;28;20438;-74
2023/09/30 00:19:03;;;;;;;19.77;10.80;;;;;;;;;;2094097;28;20028;-74
2023/09/30 00:20:24;;;;;;;21.50;10.82;;;;;;;;;;2091678;28;20032;-74
2023/09/30 00:21:45;;;;;;;21.77;11.73;;;;;;;;;;2094550;28;20033;-74
2023/09/30 00:23:06;;;;;;;21.40;9.90;;;;;;;;;;2094609;28;20040;-74
2023/09/30 00:24:27;;;;;;;21.40;9.35;;;;;;;;;;2096894;28;20037;-74
2023/09/30 00:25:50;;;;;;;18.52;10.52;;;;;;;;;;2088950;28;20504;-74
2023/09/30 00:27:10;;;;;;;22.52;10.00;;;;;;;;;;2088843;28;20039;-74
2023/09/30 00:28:31;;;;;;;18.63;10.10;;;;;;;;;;2092194;28;20048;-73
2023/09/30 00:29:52;;;;;;;17.75;10.32;;;;;;;;;;2097035;28;20047;-73
2023/09/30 00:31:13;;;;;;;21.77;10.35;;;;;;;;;;2082664;28;20107;-72
2023/09/30 00:32:34;;;;;;;17.77;9.60;;;;;;;;;;2094414;28;20040;-73
2023/09/30 00:33:55;;;;;;;20.13;10.98;;;;;;;;;;2095711;28;20051;-72
2023/09/30 00:35:16;;;;;;;20.88;11.07;;;;;;;;;;2082262;28;20029;-74
2023/09/30 00:36:37;;;;;;;22.33;10.70;;;;;;;;;;2098234;28;20029;-73
2023/09/30 00:37:58;;;;;;;21.52;10.75;;;;;;;;;;2097549;28;20341;-72
2023/09/30 00:39:19;;;;;;;17.35;9.68;;;;;;;;;;2106057;28;20036;-73
2023/09/30 00:40:47;;;;;;;17.42;10.63;;;;;;;;;;2105208;28;20040;-72
2023/09/30 00:42:08;;;;;;;23.38;10.05;;;;;;;;;;2100823;28;20491;-72
2023/09/30 00:43:29;;;;;;;17.42;10.35;;;;;;;;;;2089059;28;20029;-72
2023/09/30 00:44:50;;;;;;;22.10;9.88;;;;;;;;;;2085874;28;20021;-73
2023/09/30 00:46:22;;;;;;;25.63;10.23;;;;;;;;;;2091312;28;20025;-72
2023/09/30 00:47:43;;;;;;;;;;;;;;;;;;2096377;28;20411;-72
2023/09/30 00:49:04;;;;;;;20.05;11.05;;;;;;;;;;2092395;28;19920;-72
2023/09/30 00:50:26;;;;;;;20.70;10.43;;;;;;;;;;2093605;28;20033;-72
2023/09/30 00:51:49;;;;;;;17.00;10.35;;;;;;;;;;2096664;28;20060;-72
2023/09/30 00:53:10;;;;;;;18.73;10.50;;;;;;;;;;2086046;28;20025;-73
2023/09/30 00:54:31;;;;;;;18.98;11.10;;;;;;;;;;2093942;28;20094;-72
2023/09/30 00:55:52;;;;;;;19.92;10.82;;;;;;;;;;2096902;28;20025;-72
2023/09/30 00:57:13;;;;;;;18.70;11.30;;;;;;;;;;2087201;28;20029;-73
2023/09/30 00:58:34;;;;;;;20.08;11.02;;;;;;;;;;2091337;28;20032;-73
2023/09/30 00:59:55;;;;;;;19.05;11.00;;;;;;;;;;2080554;28;20037;-71
2023/09/30 01:01:16;;;;;;;20.65;11.13;;;;;;;;;;2083303;28;20021;-72
2023/09/30 01:02:38;;;;;;;20.08;12.02;;;;;;;;;;2093990;28;20046;-73
2023/09/30 01:03:59;;;;;;;20.35;12.43;;;;;;;;;;2093753;28;20028;-72
2023/09/30 01:05:19;;;;;;;18.80;10.27;;;;;;;;;;2089487;28;20033;-72
2023/09/30 01:06:41;;;;;;;31.00;11.52;;;;;;;;;;2081469;28;20037;-72
2023/09/30 01:08:02;;;;;;;24.45;10.85;;;;;;;;;;2094751;28;20086;-73
2023/09/30 01:09:24;;;;;;;19.40;11.02;;;;;;;;;;2095251;28;20134;-72
2023/09/30 01:10:45;;;;;;;22.98;11.32;;;;;;;;;;2096390;28;20538;-72
2023/09/30 01:12:07;;;;;;;20.48;11.40;;;;;;;;;;2096913;28;20086;-73
2023/09/30 01:13:35;;;;;;;20.83;11.52;;;;;;;;;;2095484;28;20480;-73
2023/09/30 01:15:04;;;;;;;24.60;11.68;;;;;;;;;;2094956;28;20025;-73
2023/09/30 01:16:25;;;;;;;26.23;11.63;;;;;;;;;;2080923;28;20030;-73
2023/09/30 01:17:46;;;;;;;20.17;11.75;;;;;;;;;;2090222;28;20317;-72
2023/09/30 01:19:07;;;;;;;22.85;12.38;;;;;;;;;;2094197;28;20360;-72
2023/09/30 01:20:28;;;;;;;24.52;11.80;;;;;;;;;;2101202;28;20047;-72
2023/09/30 01:21:49;;;;;;;27.15;11.77;;;;;;;;;;2091187;28;20341;-72
2023/09/30 01:23:11;;;;;;;25.83;12.40;;;;;;;;;;2094916;28;20043;-72
2023/09/30 01:24:40;;;;;;;23.10;12.10;;;;;;;;;;2088086;28;20033;-73
2023/09/30 01:26:12;;;;;;;22.05;11.15;;;;;;;;;;2093869;28;20135;-72
2023/09/30 01:27:33;;;;;;;22.38;12.98;;;;;;;;;;2087924;28;20021;-72
2023/09/30 01:28:54;;;;;;;19.15;11.55;;;;;;;;;;2092755;28;20035;-72
2023/09/30 01:30:15;;;;;;;19.60;12.10;;;;;;;;;;2096533;28;20391;-73
2023/09/30 01:31:37;;;;;;;18.55;11.05;;;;;;;;;;2096484;28;20131;-73
2023/09/30 01:32:58;;;;;;;20.40;11.82;;;;;;;;;;2097325;28;20036;-72
2023/09/30 01:34:19;;;;;;;23.90;12.68;;;;;;;;;;2086961;28;20075;-73
2023/09/30 01:35:40;;;;;;;23.83;12.55;;;;;;;;;;2087222;28;20044;-73
2023/09/30 01:37:01;;;;;;;26.33;13.07;;;;;;;;;;2089297;28;20103;-72
2023/09/30 01:38:22;;;;;;;18.38;12.05;;;;;;;;;;2083653;28;20516;-70
2023/09/30 01:39:45;;;;;;;19.10;11.55;;;;;;;;;;2094095;28;20111;-70
2023/09/30 01:41:06;;;;;;;20.55;12.32;;;;;;;;;;2103844;28;20047;-70
2023/09/30 01:42:27;;;;;;;25.63;13.90;;;;;;;;;;2090302;28;20078;-70
2023/09/30 01:43:48;;;;;;;23.48;14.07;;;;;;;;;;2085699;28;20488;-71
2023/09/30 01:45:10;;;;;;;32.53;13.80;;;;;;;;;;2091545;28;20579;-71
2023/09/30 01:46:31;;;;;;;27.27;13.45;;;;;;;;;;2096619;28;20017;-70
2023/09/30 01:47:52;;;;;;;22.25;12.50;;;;;;;;;;2096271;28;20090;-70
2023/09/30 01:49:12;;;;;;;22.30;13.13;;;;;;;;;;2084017;28;20045;-73
2023/09/30 01:50:33;;;;;;;23.52;13.05;;;;;;;;;;2091886;28;20037;-71
2023/09/30 01:51:54;;;;;;;24.98;13.23;;;;;;;;;;2096971;28;20040;-71
2023/09/30 01:53:15;;;;;;;23.88;12.98;;;;;;;;;;2094343;28;20032;-71
2023/09/30 01:54:36;;;;;;;27.27;13.20;;;;;;;;;;2096190;28;20387;-70
2023/09/30 01:55:57;;;;;;;25.73;13.15;;;;;;;;;;2103300;28;20487;-70
2023/09/30 01:57:18;;;;;;;27.00;13.43;;;;;;;;;;2090444;28;20044;-71
2023/09/30 01:58:39;;;;;;;24.55;13.88;;;;;;;;;;2094942;28;20040;-72
2023/09/30 02:00:00;;;;;;;29.27;14.65;;;;;;;;;;2087838;28;20032;-71
2023/09/30 02:01:21;;;;;;;21.73;13.45;;;;;;;;;;2101580;28;20028;-70
2023/09/30 02:02:42;;;;;;;23.98;14.10;;;;;;;;;;2095803;28;20047;-70
2023/09/30 02:04:03;;;;;;;25.63;13.77;;;;;;;;;;2096020;28;20025;-71
2023/09/30 02:05:24;;;;;;;24.90;13.90;;;;;;;;;;2092274;28;20040;-71
2023/09/30 02:06:45;;;;;;;24.63;13.10;;;;;;;;;;2094949;28;20017;-70
2023/09/30 02:08:06;;;;;;;25.58;14.13;;;;;;;;;;2096479;28;20025;-70
2023/09/30 02:09:27;;;;;;;26.83;13.38;;;;;;;;;;2097436;28;20032;-70
2023/09/30 02:10:48;;;;;;;24.95;13.32;;;;;;;;;;2086439;28;20029;-71
2023/09/30 02:12:09;;;;;;;23.73;13.38;;;;;;;;;;2092878;28;20032;-71
2023/09/30 02:13:32;;;;;;;31.70;13.95;;;;;;;;;;2094726;28;20040;-72
2023/09/30 02:14:53;;;;;;;25.10;14.18;;;;;;;;;;2095199;28;20025;-70
2023/09/30 02:16:14;;;;;;;27.60;14.32;;;;;;;;;;2098795;28;20449;-71
2023/09/30 02:17:35;;;;;;;20.37;12.77;;;;;;;;;;2096528;28;20039;-71
2023/09/30 02:18:56;;;;;;;24.05;13.55;;;;;;;;;;2093554;28;20429;-71
2023/09/30 02:20:19;;;;;;;23.00;13.45;;;;;;;;;;2096136;28;20037;-70
2023/09/30 02:21:40;;;;;;;23.75;13.60;;;;;;;;;;2095442;28;20080;-71
2023/09/30 02:23:02;;;;;;;24.90;13.90;;;;;;;;;;2096358;28;20037;-71
2023/09/30 02:24:23;;;;;;;25.55;14.32;;;;;;;;;;2094019;28;20025;-71
2023/09/30 02:25:43;;;;;;;29.70;15.40;;;;;;;;;;2094351;28;20033;-70
2023/09/30 02:27:04;;;;;;;23.70;13.80;;;;;;;;;;2086963;28;20049;-71
2023/09/30 02:28:25;;;;;;;26.92;15.00;;;;;;;;;;2085143;28;20079;-70
2023/09/30 02:29:47;;;;;;;33.55;15.23;;;;;;;;;;2093371;28;20684;-71
2023/09/30 02:31:08;;;;;;;24.13;13.82;;;;;;;;;;2090649;28;20067;-70
2023/09/30 02:32:29;;;;;;;25.05;14.98;;;;;;;;;;2087022;28;20029;-70
2023/09/30 02:33:50;;;;;;;26.67;14.60;;;;;;;;;;2091780;28;20395;-70
2023/09/30 02:35:11;;;;;;;33.70;16.50;;;;;;;;;;2094315;28;20100;-71
2023/09/30 02:36:33;;;;;;;23.52;15.02;;;;;;;;;;2082006;28;20037;-69
2023/09/30 02:37:54;;;;;;;29.52;15.02;;;;;;;;;;2092198;28;20029;-69
2023/09/30 02:39:16;;;;;;;24.60;14.02;;;;;;;;;;2094779;28;20367;-72
2023/09/30 02:40:38;;;;;;;30.30;16.08;;;;;;;;;;2096234;28;20024;-71
2023/09/30 02:41:59;;;;;;;23.77;14.20;;;;;;;;;;2090902;28;20028;-71
2023/09/30 02:43:20;;;;;;;22.33;13.98;;;;;;;;;;2087417;28;20036;-71
2023/09/30 02:44:40;;;;;;;24.98;13.93;;;;;;;;;;2094296;28;20044;-71
2023/09/30 02:46:01;;;;;;;29.75;15.23;;;;;;;;;;2086363;28;20032;-71
2023/09/30 02:47:22;;;;;;;25.83;13.93;;;;;;;;;;2093061;28;20492;-73
2023/09/30 02:48:43;;;;;;;24.15;13.63;;;;;;;;;;2088614;28;20127;-73
2023/09/30 02:50:08;;;;;;;22.88;13.57;;;;;;;;;;2091550;28;20040;-73
2023/09/30 02:51:30;;;;;;;27.17;13.98;;;;;;;;;;2088176;28;20413;-73
2023/09/30 02:52:52;;;;;;;29.58;15.02;;;;;;;;;;2087118;28;20400;-73
2023/09/30 02:54:15;;;;;;;22.17;13.88;;;;;;;;;;2095642;28;20506;-73
2023/09/30 02:55:36;;;;;;;29.98;14.55;;;;;;;;;;2096174;28;20032;-74
2023/09/30 02:56:57;;;;;;;22.30;14.25;;;;;;;;;;2087404;28;20032;-72
2023/09/30 02:58:18;;;;;;;27.58;15.25;;;;;;;;;;2092262;28;20024;-73
2023/09/30 02:59:38;;;;;;;25.45;15.15;;;;;;;;;;2094198;28;20445;-73
2023/09/30 03:00:59;;;;;;;26.25;13.50;;;;;;;;;;2096726;28;20029;-73
2023/09/30 03:02:23;;;;;;;38.38;16.05;;;;;;;;;;2095751;28;20028;-73
2023/09/30 03:03:44;;;;;;;31.85;15.15;;;;;;;;;;2093912;28;20488;-73
2023/09/30 03:05:06;;;;;;;25.35;14.85;;;;;;;;;;2093381;28;20048;-73
2023/09/30 03:06:28;;;;;;;;;;;;;;;;;;2090487;28;20056;-72
2023/09/30 03:07:50;;;;;;;32.22;14.23;;;;;;;;;;2101433;28;19908;-73
2023/09/30 03:09:14;;;;;;;24.38;14.52;;;;;;;;;;2088706;28;20029;-73
2023/09/30 03:10:40;;;;;;;25.40;14.02;;;;;;;;;;2084444;28;20037;-73
2023/09/30 03:12:02;;;;;;;25.92;13.70;;;;;;;;;;2092462;28;20024;-73
2023/09/30 03:13:23;;;;;;;29.05;14.05;;;;;;;;;;2095701;28;20151;-73
2023/09/30 03:14:45;;;;;;;27.27;13.55;;;;;;;;;;2095267;28;20078;-73
2023/09/30 03:16:05;;;;;;;31.60;14.82;;;;;;;;;;2088856;28;20025;-73
2023/09/30 03:17:27;;;;;;;31.33;15.82;;;;;;;;;;2089738;28;20040;-70
2023/09/30 03:18:48;;;;;;;26.88;13.73;;;;;;;;;;2088020;28;20416;-71
2023/09/30 03:20:14;;;;;;;24.17;14.25;;;;;;;;;;2092493;28;20040;-72
2023/09/30 03:21:35;;;;;;;25.63;14.30;;;;;;;;;;2090230;28;20025;-72
2023/09/30 03:22:56;;;;;;;31.52;16.17;;;;;;;;;;2090465;28;20029;-72
2023/09/30 03:24:17;;;;;;;27.40;14.93;;;;;;;;;;2089037;28;20028;-72
2023/09/30 03:25:38;;;;;;;26.60;14.93;;;;;;;;;;2094943;28;20033;-72
2023/09/30 03:26:59;;;;;;;25.67;14.38;;;;;;;;;;2097774;28;20040;-72
2023/09/30 03:28:19;;;;;;;28.30;15.35;;;;;;;;;;2088330;28;20025;-72
2023/09/30 03:29:40;;;;;;;28.92;15.27;;;;;;;;;;2091772;28;20031;-72
2023/09/30 03:31:03;;;;;;;28.33;15.10;;;;;;;;;;2088378;28;20048;-72
2023/09/30 03:32:24;;;;;;;27.42;15.55;;;;;;;;;;2087249;28;20025;-72
2023/09/30 03:33:46;;;;;;;30.52;16.05;;;;;;;;;;2087862;28;20029;-72
2023/09/30 03:35:11;;;;;;;33.20;16.05;;;;;;;;;;2089134;28;20363;-72
2023/09/30 03:36:31;;;;;;;26.13;15.65;;;;;;;;;;2090876;28;20075;-72
2023/09/30 03:37:52;;;;;;;31.33;15.00;;;;;;;;;;2089147;28;20029;-73
2023/09/30 03:39:15;;;;;;;34.53;15.75;;;;;;;;;;2096316;28;20033;-72
2023/09/30 03:40:38;;;;;;;34.33;16.80;;;;;;;;;;2096737;28;20038;-72
2023/09/30 03:42:00;;;;;;;29.20;15.45;;;;;;;;;;2088727;28;20052;-72
2023/09/30 03:43:21;;;;;;;;;;;;;;;;;;2085280;28;20068;-72
2023/09/30 03:44:42;;;;;;;27.67;15.23;;;;;;;;;;2089840;28;19911;-72
2023/09/30 03:46:03;;;;;;;27.45;14.88;;;;;;;;;;2097604;28;20036;-73
2023/09/30 03:47:24;;;;;;;30.40;14.73;;;;;;;;;;2097789;28;20043;-73
2023/09/30 03:48:45;;;;;;;32.33;15.73;;;;;;;;;;2096292;28;20492;-71
2023/09/30 03:50:13;;;;;;;33.17;15.77;;;;;;;;;;2092955;28;20070;-72
2023/09/30 03:51:37;;;;;;;28.08;15.13;;;;;;;;;;2095921;28;20089;-71
2023/09/30 03:53:01;;;;;;;28.10;14.93;;;;;;;;;;2090182;28;20474;-71
2023/09/30 03:54:22;;;;;;;26.48;15.18;;;;;;;;;;2092677;28;20059;-71
2023/09/30 03:55:43;;;;;;;29.45;14.73;;;;;;;;;;2093280;28;20032;-72
2023/09/30 03:57:04;;;;;;;35.72;15.68;;;;;;;;;;2089342;28;20040;-71
2023/09/30 03:58:26;;;;;;;29.65;14.10;;;;;;;;;;2092822;28;20025;-77
2023/09/30 03:59:47;;;;;;;23.73;15.40;;;;;;;;;;2096510;28;20488;-79
2023/09/30 04:01:11;;;;;;;34.33;14.73;;;;;;;;;;2093322;28;20025;-78
2023/09/30 04:02:32;;;;;;;29.77;15.43;;;;;;;;;;2101881;28;20028;-79
2023/09/30 04:03:56;;;;;;;30.13;14.10;;;;;;;;;;2098221;28;20506;-78
2023/09/30 04:05:17;;;;;;;22.52;14.55;;;;;;;;;;2087355;28;20412;-79
2023/09/30 04:06:38;;;;;;;29.88;15.20;;;;;;;;;;2089281;28;20044;-79
2023/09/30 04:07:59;;;;;;;31.55;14.85;;;;;;;;;;2094020;28;20025;-79
2023/09/30 04:09:20;;;;;;;30.80;14.95;;;;;;;;;;2090957;28;20032;-79
2023/09/30 04:10:41;;;;;;;30.60;15.00;;;;;;;;;;2088494;28;20049;-78
2023/09/30 04:12:02;;;;;;;27.27;14.57;;;;;;;;;;2080864;28;20032;-79
2023/09/30 04:13:23;;;;;;;23.73;13.23;;;;;;;;;;2092170;28;20070;-79
2023/09/30 04:14:44;;;;;;;25.83;14.98;;;;;;;;;;2097398;28;20028;-78
2023/09/30 04:16:05;;;;;;;30.60;14.45;;;;;;;;;;2083067;28;20026;-79
2023/09/30 04:17:26;;;;;;;30.92;14.45;;;;;;;;;;2103719;28;20031;-79
2023/09/30 04:18:50;;;;;;;27.77;14.38;;;;;;;;;;2088474;28;20024;-81
2023/09/30 04:20:15;;;;;;;28.70;15.52;;;;;;;;;;2088896;28;20041;-79
2023/09/30 04:21:38;;;;;;;26.92;13.82;;;;;;;;;;2086721;28;20033;-78
2023/09/30 04:22:59;;;;;;;31.83;16.27;;;;;;;;;;2089689;28;20025;-79
2023/09/30 04:24:20;;;;;;;28.52;14.32;;;;;;;;;;2098809;28;20531;-79
2023/09/30 04:25:43;;;;;;;25.98;13.68;;;;;;;;;;2095936;28;20029;-77
2023/09/30 04:27:05;;;;;;;29.33;16.08;;;;;;;;;;2086962;28;20102;-79
2023/09/30 04:28:27;;;;;;;27.10;14.02;;;;;;;;;;2083897;28;20159;-79
2023/09/30 04:29:49;;;;;;;29.25;14.65;;;;;;;;;;2098780;28;20352;-79
2023/09/30 04:31:10;;;;;;;28.08;14.18;;;;;;;;;;2088329;28;20036;-79
2023/09/30 04:32:30;;;;;;;22.85;13.68;;;;;;;;;;2094464;28;20024;-79
2023/09/30 04:33:52;;;;;;;28.75;15.10;;;;;;;;;;2094267;28;20419;-79
2023/09/30 04:35:13;;;;;;;25.73;15.18;;;;;;;;;;2094678;28;20372;-79
2023/09/30 04:36:35;;;;;;;28.35;15.73;;;;;;;;;;2089061;28;20445;-78
2023/09/30 04:37:57;;;;;;;24.17;13.45;;;;;;;;;;2092625;28;20040;-79
2023/09/30 04:39:18;;;;;;;28.48;15.07;;;;;;;;;;2080425;28;20025;-79
2023/09/30 04:40:39;;;;;;;25.05;14.10;;;;;;;;;;2083677;28;20041;-79
2023/09/30 04:42:01;;;;;;;30.23;14.38;;;;;;;;;;2078577;28;20033;-80
2023/09/30 04:43:22;;;;;;;25.73;14.52;;;;;;;;;;2088072;28;20338;-79
2023/09/30 04:44:43;;;;;;;28.20;14.82;;;;;;;;;;2086251;28;20025;-79
2023/09/30 04:46:05;;;;;;;25.90;13.60;;;;;;;;;;2082905;28;20025;-79
2023/09/30 04:47:26;;;;;;;28.42;13.82;;;;;;;;;;2088443;28;20040;-79
2023/09/30 04:48:48;;;;;;;28.80;14.27;;;;;;;;;;2090203;28;20016;-78
2023/09/30 04:50:09;;;;;;;;;;;;;;;;;;2089092;28;20054;-79
2023/09/30 04:51:32;;;;;;;26.65;14.30;;;;;;;;;;2087670;28;19904;-78
2023/09/30 04:52:53;;;;;;;23.85;13.88;;;;;;;;;;2089761;28;20033;-79
2023/09/30 04:54:14;;;;;;;29.85;14.85;;;;;;;;;;2100327;28;20117;-79
2023/09/30 04:55:37;;;;;;;25.20;14.02;;;;;;;;;;2091645;28;20044;-78
2023/09/30 04:56:58;;;;;;;24.23;13.90;;;;;;;;;;2088763;28;20025;-79
2023/09/30 04:58:19;;;;;;;22.38;13.27;;;;;;;;;;2088858;28;20035;-78
2023/09/30 04:59:40;;;;;;;23.38;13.68;;;;;;;;;;2081100;28;20508;-76
2023/09/30 05:01:00;;;;;;;22.67;12.95;;;;;;;;;;2081814;28;20038;-79
2023/09/30 05:02:21;;;;;;;24.25;13.57;;;;;;;;;;2089090;28;20026;-79
2023/09/30 05:03:43;;;;;;;24.75;13.77;;;;;;;;;;2090551;28;20101;-79
2023/09/30 05:05:06;;;;;;;22.42;13.32;;;;;;;;;;2091842;28;20033;-79
2023/09/30 05:06:27;;;;;;;;;;;;;;;;;;2098284;28;20036;-79
2023/09/30 05:07:48;;;;;;;23.70;13.65;;;;;;;;;;2088888;28;19909;-79
2023/09/30 05:09:10;;;;;;;28.33;13.60;;;;;;;;;;2084550;28;20033;-72
2023/09/30 05:10:30;;;;;;;22.08;13.45;;;;;;;;;;2088366;28;20523;-71
2023/09/30 05:11:52;;;;;;;23.40;13.60;;;;;;;;;;2086973;28;20038;-71
2023/09/30 05:13:12;;;;;;;26.02;15.02;;;;;;;;;;2080373;28;20034;-70
2023/09/30 05:14:34;;;;;;;29.85;14.05;;;;;;;;;;2078978;28;20031;-70
2023/09/30 05:15:55;;;;;;;28.38;15.07;;;;;;;;;;2088609;28;20029;-71
2023/09/30 05:17:16;;;;;;;29.27;16.13;;;;;;;;;;2088914;28;20496;-70
2023/09/30 05:18:38;;;;;;;28.17;14.85;;;;;;;;;;2082805;28;20033;-70
2023/09/30 05:19:59;;;;;;;27.17;15.25;;;;;;;;;;2075847;28;20041;-70
2023/09/30 05:21:21;;;;;;;28.73;14.50;;;;;;;;;;2082122;28;20040;-71
2023/09/30 05:22:45;;;;;;;;;;;;;;;;;;2080729;28;20041;-70
2023/09/30 05:24:06;;;;;;;29.10;15.23;;;;;;;;;;2088415;28;19905;-70
2023/09/30 05:25:27;;;;;;;28.50;14.52;;;;;;;;;;2079896;28;20594;-72
2023/09/30 05:26:48;;;;;;;26.58;13.93;;;;;;;;;;2077733;28;20592;-70
2023/09/30 05:28:11;;;;;;;28.15;14.82;;;;;;;;;;2080350;28;20033;-71
2023/09/30 05:29:33;;;;;;;30.60;15.45;;;;;;;;;;2075086;28;20410;-70
2023/09/30 05:30:54;;;;;;;28.95;14.52;;;;;;;;;;2075962;28;20083;-70
2023/09/30 05:32:15;;;;;;;31.80;16.33;;;;;;;;;;2087523;28;20037;-72
2023/09/30 05:33:36;;;;;;;36.60;16.60;;;;;;;;;;2093734;28;20133;-70
2023/09/30 05:34:57;;;;;;;30.05;14.27;;;;;;;;;;2083557;28;20028;-71
2023/09/30 05:36:20;;;;;;;33.85;16.05;;;;;;;;;;2079915;28;20079;-70
2023/09/30 05:37:41;;;;;;;33.35;15.60;;;;;;;;;;2092111;28;20028;-71
2023/09/30 05:39:03;;;;;;;32.63;14.93;;;;;;;;;;2086964;28;20030;-71
2023/09/30 05:40:30;;;;;;;32.80;14.98;;;;;;;;;;2087356;28;20912;-70
2023/09/30 05:41:51;;;;;;;30.98;15.25;;;;;;;;;;2088216;28;20405;-70
2023/09/30 05:43:13;;;;;;;31.45;15.23;;;;;;;;;;2088159;28;20032;-70
2023/09/30 05:44:34;;;;;;;28.73;14.73;;;;;;;;;;2086022;28;20033;-70
2023/09/30 05:45:55;;;;;;;25.20;12.93;;;;;;;;;;2081788;28;20037;-71
2023/09/30 05:47:16;;;;;;;27.85;15.38;;;;;;;;;;2079958;28;20314;-70
2023/09/30 05:48:38;;;;;;;30.25;15.00;;;;;;;;;;2078402;28;20545;-71
2023/09/30 05:49:59;;;;;;;;;;;;;;;;;;2087415;28;20021;-71
2023/09/30 05:51:20;;;;;;;30.17;14.70;;;;;;;;;;2085369;28;19940;-70
2023/09/30 05:52:42;;;;;;;30.88;14.73;;;;;;;;;;2088358;28;20071;-70
2023/09/30 05:54:04;;;;;;;31.45;14.98;;;;;;;;;;2079459;28;20485;-70
2023/09/30 05:55:26;;;;;;;27.27;14.23;;;;;;;;;;2087376;28;20045;-70
2023/09/30 05:56:46;;;;;;;27.70;15.23;;;;;;;;;;2078586;28;20052;-71
2023/09/30 05:58:08;;;;;;;29.65;15.52;;;;;;;;;;2079452;28;20032;-71
2023/09/30 05:59:30;;;;;;;27.48;15.55;;;;;;;;;;2078352;28;20025;-71
2023/09/30 06:00:51;;;;;;;30.77;15.35;;;;;;;;;;2077778;28;20485;-70
2023/09/30 06:02:12;;;;;;;28.35;14.73;;;;;;;;;;2083452;28;20025;-71
2023/09/30 06:03:39;;;;;;;35.10;15.68;;;;;;;;;;2077512;28;20083;-70
2023/09/30 06:05:00;;;;;;;34.85;15.82;;;;;;;;;;2076853;28;20037;-70
2023/09/30 06:06:23;;;;;;;26.85;16.23;;;;;;;;;;2075257;28;20083;-71
2023/09/30 06:07:45;;;;;;;27.50;16.23;;;;;;;;;;2074313;28;20029;-70
2023/09/30 06:09:07;;;;;;;34.47;16.80;;;;;;;;;;2076523;28;20127;-70
2023/09/30 06:10:29;;;;;;;30.05;15.43;;;;;;;;;;2080450;28;20456;-71
2023/09/30 06:11:50;;;;;;;30.63;15.27;;;;;;;;;;2079415;28;20034;-72
2023/09/30 06:13:11;;;;;;;33.60;15.73;;;;;;;;;;2083269;28;20100;-73
2023/09/30 06:14:32;;;;;;;37.97;17.02;;;;;;;;;;2083596;28;20755;-70
2023/09/30 06:15:54;;;;;;;37.63;17.70;;;;;;;;;;2093523;28;20035;-71
2023/09/30 06:17:15;;;;;;;37.00;17.23;;;;;;;;;;2086233;28;20068;-70
2023/09/30 06:18:36;;;;;;;38.35;15.90;;;;;;;;;;2085408;28;21007;-70
2023/09/30 06:20:06;;;;;;;35.70;15.73;;;;;;;;;;2076564;28;20041;-73
2023/09/30 06:21:29;;;;;;;33.08;15.70;;;;;;;;;;2073890;28;20030;-73
2023/09/30 06:22:50;;;;;;;40.88;16.10;;;;;;;;;;2087200;28;20029;-73
2023/09/30 06:24:11;;;;;;;37.60;17.73;;;;;;;;;;2079196;28;20037;-73
2023/09/30 06:25:33;;;;;;;42.03;17.13;;;;;;;;;;2078907;28;20056;-74
2023/09/30 06:26:54;;;;;;;40.92;18.10;;;;;;;;;;2076227;28;20543;-73
2023/09/30 06:28:15;;;;;;;35.15;17.20;;;;;;;;;;2082877;28;20667;-73
2023/09/30 06:29:36;;;;;;;39.38;17.20;;;;;;;;;;2085385;28;20033;-73
2023/09/30 06:30:57;;;;;;;43.97;18.08;;;;;;;;;;2078957;28;20076;-73
2023/09/30 06:32:18;;;;;;;33.50;16.67;;;;;;;;;;2087006;28;20559;-74
2023/09/30 06:33:39;;;;;;;38.80;16.35;;;;;;;;;;2085028;28;20032;-73
2023/09/30 06:35:02;;;;;;;42.92;16.52;;;;;;;;;;2081949;28;20036;-74
2023/09/30 06:36:23;;;;;;;34.72;16.30;;;;;;;;;;2082893;28;20106;-73
2023/09/30 06:37:45;;;;;;;35.40;16.90;;;;;;;;;;2086387;28;20032;-73
2023/09/30 06:39:07;;;;;;;29.38;15.80;;;;;;;;;;2085574;28;20380;-73
2023/09/30 06:40:28;;;;;;;;;;;;;;;;;;2078668;28;20049;-73
2023/09/30 06:41:49;;;;;;;35.35;16.45;;;;;;;;;;2084512;28;19962;-73
2023/09/30 06:43:10;;;;;;;35.97;18.88;;;;;;;;;;2075600;28;20026;-73
2023/09/30 06:44:31;;;;;;;36.58;18.95;;;;;;;;;;2082696;28;20033;-73
2023/09/30 06:45:52;;;;;;;36.00;16.75;;;;;;;;;;2071338;28;20041;-73
2023/09/30 06:47:12;;;;;;;35.15;15.88;;;;;;;;;;2076806;28;20129;-73
2023/09/30 06:48:33;;;;;;;37.22;16.70;;;;;;;;;;2077009;28;20035;-73
2023/09/30 06:49:54;;;;;;;33.00;15.65;;;;;;;;;;2085808;28;20568;-73
2023/09/30 06:51:15;;;;;;;35.80;16.50;;;;;;;;;;2080837;28;20049;-73
2023/09/30 06:52:37;;;;;;;36.53;16.40;;;;;;;;;;2089804;28;20025;-74
2023/09/30 06:53:58;;;;;;;38.88;16.55;;;;;;;;;;2089763;28;20033;-73
2023/09/30 06:55:19;;;;;;;37.65;16.02;;;;;;;;;;2081497;28;20029;-73
2023/09/30 06:56:41;;;;;;;33.47;15.50;;;;;;;;;;2081441;28;20026;-74
2023/09/30 06:58:02;;;;;;;42.90;18.73;;;;;;;;;;2084155;28;20025;-73
2023/09/30 06:59:24;;;;;;;35.05;15.82;;;;;;;;;;2090951;28;20025;-73
2023/09/30 07:00:45;;;;;;;34.67;17.08;;;;;;;;;;2091103;28;20033;-74
2023/09/30 07:02:06;;;;;;;38.75;17.92;;;;;;;;;;2079651;28;20129;-73
2023/09/30 07:03:27;;;;;;;35.63;19.27;;;;;;;;;;2078873;28;20026;-73
2023/09/30 07:04:48;;;;;;;40.67;17.38;;;;;;;;;;2081659;28;20357;-73
2023/09/30 07:06:09;;;;;;;35.80;17.50;;;;;;;;;;2081478;28;20048;-73
2023/09/30 07:07:30;;;;;;;34.72;16.75;;;;;;;;;;2080515;28;20034;-74
2023/09/30 07:08:51;;;;;;;35.47;17.35;;;;;;;;;;2084265;28;20056;-74
2023/09/30 07:10:12;;;;;;;43.58;17.58;;;;;;;;;;2077632;28;20502;-73
2023/09/30 07:11:33;;;;;;;40.78;16.95;;;;;;;;;;2084517;28;20033;-73
2023/09/30 07:12:54;;;;;;;30.38;16.67;;;;;;;;;;2077721;28;20455;-74
2023/09/30 07:14:15;;;;;;;33.25;14.95;;;;;;;;;;2079733;28;20041;-73
2023/09/30 07:15:36;;;;;;;34.75;15.43;;;;;;;;;;2084873;28;20041;-73
2023/09/30 07:16:57;;;;;;;38.80;16.75;;;;;;;;;;2087187;28;20048;-73
2023/09/30 07:18:18;;;;;;;28.85;14.07;;;;;;;;;;2087984;28;20033;-73
2023/09/30 07:19:39;;;;;;;37.03;15.30;;;;;;;;;;2087767;28;20025;-73
2023/09/30 07:21:00;;;;;;;34.08;14.02;;;;;;;;;;2076843;28;20437;-73
2023/09/30 07:22:22;;;;;;;28.65;13.93;;;;;;;;;;2082840;28;20080;-73
2023/09/30 07:23:43;;;;;;;29.55;14.90;;;;;;;;;;2085207;28;20518;-73
2023/09/30 07:25:04;;;;;;;27.13;14.25;;;;;;;;;;2084279;28;20044;-73
2023/09/30 07:26:25;;;;;;;29.80;13.75;;;;;;;;;;2085200;28;20028;-73
2023/09/30 07:27:46;;;;;;;26.15;12.32;;;;;;;;;;2090161;28;20025;-74
2023/09/30 07:29:08;;;;;;;26.63;12.80;;;;;;;;;;2090710;28;20085;-74
2023/09/30 07:30:29;;;;;;;;;;;;;;;;;;2084555;28;20037;-74
2023/09/30 07:31:50;;;;;;;23.73;13.10;;;;;;;;;;2085146;28;19905;-73
2023/09/30 07:33:11;;;;;;;26.10;12.63;;;;;;;;;;2088723;28;20047;-74
2023/09/30 07:34:32;;;;;;;37.67;14.40;;;;;;;;;;2080734;28;20486;-74
2023/09/30 07:35:55;;;;;;;29.92;13.27;;;;;;;;;;2092830;28;20041;-74
2023/09/30 07:37:17;;;;;;;22.67;10.68;;;;;;;;;;2087899;28;20605;-74
2023/09/30 07:38:38;;;;;;;22.70;10.57;;;;;;;;;;2084943;28;20025;-73
2023/09/30 07:39:59;;;;;;;20.80;10.82;;;;;;;;;;2094212;28;20090;-74
2023/09/30 07:41:20;;;;;;;26.70;11.48;;;;;;;;;;2097004;28;20039;-74
2023/09/30 07:42:41;;;;;;;24.25;10.70;;;;;;;;;;2097476;28;20032;-74
2023/09/30 07:44:02;;;;;;;21.38;10.95;;;;;;;;;;2097105;28;20031;-74
2023/09/30 07:45:23;;;;;;;28.17;12.10;;;;;;;;;;2097128;28;20097;-74
2023/09/30 07:46:44;;;;;;;23.75;12.10;;;;;;;;;;2098390;28;20738;-74
2023/09/30 07:48:09;;;;;;;26.70;11.15;;;;;;;;;;2092639;28;20028;-73
2023/09/30 07:49:30;;;;;;;27.77;12.25;;;;;;;;;;2095748;28;20039;-73
2023/09/30 07:50:50;;;;;;;27.90;12.40;;;;;;;;;;2092215;28;20060;-74
2023/09/30 07:52:11;;;;;;;26.75;12.20;;;;;;;;;;2098886;28;20027;-73
2023/09/30 07:53:32;;;;;;;27.25;11.02;;;;;;;;;;2095363;28;20032;-74
2023/09/30 07:54:53;;;;;;;20.48;10.60;;;;;;;;;;2094039;28;20039;-74
2023/09/30 07:56:14;;;;;;;24.58;11.32;;;;;;;;;;2094577;28;20020;-74